sensor_id;sensor_type;location;lat;lon;timestamp;pressure;altitude;pressure_sealevel;temperature;humidity
40982;BME280;26708;50.304;19.028;2022-11-23T00:01:17;97297.22;;;3.27;65.53
40982;BME280;26708;50.304;19.028;2022-11-23T00:03:23;97292.03;;;3.28;65.55
40982;BME280;26708;50.304;19.028;2022-11-23T00:05:28;97242.81;;;3.01;65.52
40982;BME280;26708;50.304;19.028;2022-11-23T00:07:34;97278.28;;;3.32;65.42
40982;BME280;26708;50.304;19.028;2022-11-23T00:09:38;97227.31;;;3.01;65.49
40982;BME280;26708;50.304;19.028;2022-11-23T00:11:45;97278.28;;;3.32;65.29
40982;BME280;26708;50.304;19.028;2022-11-23T00:13:51;97191.06;;;2.83;65.25
40982;BME280;26708;50.304;19.028;2022-11-23T00:15:56;97266.16;;;3.18;65.27
40982;BME280;26708;50.304;19.028;2022-11-23T00:18:00;97285.13;;;3.23;65.23
40982;BME280;26708;50.304;19.028;2022-11-23T00:20:08;97241.91;;;2.92;65.53
40982;BME280;26708;50.304;19.028;2022-11-23T00:22:12;97279.06;;;3.15;65.51
40982;BME280;26708;50.304;19.028;2022-11-23T00:24:17;97284.22;;;3.12;65.48
40982;BME280;26708;50.304;19.028;2022-11-23T00:26:22;97262.63;;;2.99;65.56
40982;BME280;26708;50.304;19.028;2022-11-23T00:28:29;97288.50;;;3.08;65.63
40982;BME280;26708;50.304;19.028;2022-11-23T00:30:34;97262.56;;;2.92;65.75
40982;BME280;26708;50.304;19.028;2022-11-23T00:32:39;97275.56;;;3.04;65.84
40982;BME280;26708;50.304;19.028;2022-11-23T00:34:44;97282.47;;;3.06;65.79
40982;BME280;26708;50.304;19.028;2022-11-23T00:36:50;97279.00;;;3.03;65.74
40982;BME280;26708;50.304;19.028;2022-11-23T00:38:55;97286.72;;;3.00;65.76
40982;BME280;26708;50.304;19.028;2022-11-23T00:41:02;97262.53;;;2.84;65.95
40982;BME280;26708;50.304;19.028;2022-11-23T00:43:07;97232.25;;;2.61;65.81
40982;BME280;26708;50.304;19.028;2022-11-23T00:45:15;97270.22;;;2.78;65.90
40982;BME280;26708;50.304;19.028;2022-11-23T00:47:19;97146.63;;;2.02;66.16
40982;BME280;26708;50.304;19.028;2022-11-23T00:49:23;97271.97;;;2.79;66.29
40982;BME280;26708;50.304;19.028;2022-11-23T00:51:31;97274.53;;;2.76;66.27
40982;BME280;26708;50.304;19.028;2022-11-23T00:53:37;97267.63;;;2.75;66.27
40982;BME280;26708;50.304;19.028;2022-11-23T00:55:50;97281.38;;;2.71;66.53
40982;BME280;26708;50.304;19.028;2022-11-23T00:57:56;97277.94;;;2.71;66.41
40982;BME280;26708;50.304;19.028;2022-11-23T01:00:01;97282.22;;;2.67;66.50
40982;BME280;26708;50.304;19.028;2022-11-23T01:02:09;97283.03;;;2.63;66.58
40982;BME280;26708;50.304;19.028;2022-11-23T01:04:14;97283.88;;;2.61;66.60
40982;BME280;26708;50.304;19.028;2022-11-23T01:06:21;97282.16;;;2.60;66.85
40982;BME280;26708;50.304;19.028;2022-11-23T01:08:26;97279.56;;;2.57;66.75
40982;BME280;26708;50.304;19.028;2022-11-23T01:10:34;97269.19;;;2.54;66.87
40982;BME280;26708;50.304;19.028;2022-11-23T01:12:39;97204.31;;;2.09;66.89
40982;BME280;26708;50.304;19.028;2022-11-23T01:14:44;97286.34;;;2.49;66.82
40982;BME280;26708;50.304;19.028;2022-11-23T01:16:49;97251.81;;;2.32;66.98
40982;BME280;26708;50.304;19.028;2022-11-23T01:18:58;97134.97;;;1.45;66.83
40982;BME280;26708;50.304;19.028;2022-11-23T01:21:03;97255.22;;;2.29;66.86
40982;BME280;26708;50.304;19.028;2022-11-23T01:23:08;97243.19;;;2.34;67.20
40982;BME280;26708;50.304;19.028;2022-11-23T01:25:15;97276.06;;;2.52;67.27
40982;BME280;26708;50.304;19.028;2022-11-23T01:27:20;97270.94;;;2.58;67.03
40982;BME280;26708;50.304;19.028;2022-11-23T01:29:26;97269.25;;;2.61;66.97
40982;BME280;26708;50.304;19.028;2022-11-23T01:31:34;97267.56;;;2.65;66.83
40982;BME280;26708;50.304;19.028;2022-11-23T01:33:40;97267.56;;;2.65;66.71
40982;BME280;26708;50.304;19.028;2022-11-23T01:35:48;97270.09;;;2.62;66.70
40982;BME280;26708;50.304;19.028;2022-11-23T01:37:52;97277.00;;;2.64;66.70
40982;BME280;26708;50.304;19.028;2022-11-23T01:39:56;97270.09;;;2.62;66.65
40982;BME280;26708;50.304;19.028;2022-11-23T01:42:02;97216.50;;;2.28;66.70
40982;BME280;26708;50.304;19.028;2022-11-23T01:44:26;97203.41;;;2.07;66.80
40982;BME280;26708;50.304;19.028;2022-11-23T01:46:32;97248.41;;;2.40;66.99
40982;BME280;26708;50.304;19.028;2022-11-23T01:48:40;97269.25;;;2.60;66.79
40982;BME280;26708;50.304;19.028;2022-11-23T01:50:51;97276.13;;;2.59;66.82
40982;BME280;26708;50.304;19.028;2022-11-23T01:52:57;97282.19;;;2.63;66.84
40982;BME280;26708;50.304;19.028;2022-11-23T01:55:03;97272.69;;;2.62;66.89
40982;BME280;26708;50.304;19.028;2022-11-23T01:57:15;97285.56;;;2.57;66.82
40982;BME280;26708;50.304;19.028;2022-11-23T01:59:23;97268.31;;;2.52;67.17
40982;BME280;26708;50.304;19.028;2022-11-23T02:01:30;97250.19;;;2.47;66.80
40982;BME280;26708;50.304;19.028;2022-11-23T02:03:36;97285.63;;;2.63;66.79
40982;BME280;26708;50.304;19.028;2022-11-23T02:05:49;97284.75;;;2.61;66.83
40982;BME280;26708;50.304;19.028;2022-11-23T02:08:01;97283.84;;;2.56;66.85
40982;BME280;26708;50.304;19.028;2022-11-23T02:10:07;97239.69;;;2.25;67.14
40982;BME280;26708;50.304;19.028;2022-11-23T02:12:26;97292.44;;;2.52;67.15
40982;BME280;26708;50.304;19.028;2022-11-23T02:14:32;97288.97;;;2.52;67.32
40982;BME280;26708;50.304;19.028;2022-11-23T02:16:37;97288.09;;;2.53;67.30
40982;BME280;26708;50.304;19.028;2022-11-23T02:18:46;97243.16;;;2.28;67.25
40982;BME280;26708;50.304;19.028;2022-11-23T02:20:59;97244.88;;;2.28;67.14
40982;BME280;26708;50.304;19.028;2022-11-23T02:23:17;97269.03;;;2.37;67.16
40982;BME280;26708;50.304;19.028;2022-11-23T02:25:35;97276.78;;;2.37;67.44
40982;BME280;26708;50.304;19.028;2022-11-23T02:27:47;97294.91;;;2.46;67.34
40982;BME280;26708;50.304;19.028;2022-11-23T02:29:54;97240.38;;;2.06;67.34
40982;BME280;26708;50.304;19.028;2022-11-23T02:32:00;97287.94;;;2.38;67.54
40982;BME280;26708;50.304;19.028;2022-11-23T02:34:05;97299.97;;;2.34;67.85
40982;BME280;26708;50.304;19.028;2022-11-23T02:36:37;97251.56;;;2.06;67.95
40982;BME280;26708;50.304;19.028;2022-11-23T02:38:43;97297.34;;;2.30;68.00
40982;BME280;26708;50.304;19.028;2022-11-23T02:40:48;97296.50;;;2.31;68.10
40982;BME280;26708;50.304;19.028;2022-11-23T02:42:59;97280.09;;;2.21;67.99
40982;BME280;26708;50.304;19.028;2022-11-23T02:45:13;97305.16;;;2.36;68.24
40982;BME280;26708;50.304;19.028;2022-11-23T02:47:23;97306.06;;;2.41;67.99
40982;BME280;26708;50.304;19.028;2022-11-23T02:49:27;97290.50;;;2.32;67.88
40982;BME280;26708;50.304;19.028;2022-11-23T02:51:32;97123.75;;;1.35;67.84
40982;BME280;26708;50.304;19.028;2022-11-23T02:53:37;97300.13;;;2.49;67.61
40982;BME280;26708;50.304;19.028;2022-11-23T02:55:44;97256.88;;;2.24;67.62
40982;BME280;26708;50.304;19.028;2022-11-23T02:57:49;97298.44;;;2.51;67.62
40982;BME280;26708;50.304;19.028;2022-11-23T02:59:56;97306.25;;;2.59;67.54
40982;BME280;26708;50.304;19.028;2022-11-23T03:02:03;97258.72;;;2.40;67.27
40982;BME280;26708;50.304;19.028;2022-11-23T03:04:09;97286.53;;;2.68;67.05
40982;BME280;26708;50.304;19.028;2022-11-23T03:06:15;97288.28;;;2.71;66.97
40982;BME280;26708;50.304;19.028;2022-11-23T03:08:20;97283.94;;;2.68;66.88
40982;BME280;26708;50.304;19.028;2022-11-23T03:10:24;97286.53;;;2.71;66.68
40982;BME280;26708;50.304;19.028;2022-11-23T03:12:30;97280.53;;;2.74;66.60
40982;BME280;26708;50.304;19.028;2022-11-23T03:14:36;97281.41;;;2.76;66.62
40982;BME280;26708;50.304;19.028;2022-11-23T03:16:43;97280.50;;;2.72;66.37
40982;BME280;26708;50.304;19.028;2022-11-23T03:18:52;97279.66;;;2.70;66.43
40982;BME280;26708;50.304;19.028;2022-11-23T03:21:01;97253.75;;;2.57;66.56
40982;BME280;26708;50.304;19.028;2022-11-23T03:23:06;97279.66;;;2.73;66.71
40982;BME280;26708;50.304;19.028;2022-11-23T03:25:11;97284.84;;;2.76;66.54
40982;BME280;26708;50.304;19.028;2022-11-23T03:27:18;97265.00;;;2.68;66.32
40982;BME280;26708;50.304;19.028;2022-11-23T03:29:23;97226.94;;;2.46;66.30
40982;BME280;26708;50.304;19.028;2022-11-23T03:31:29;97270.25;;;2.81;66.37
40982;BME280;26708;50.304;19.028;2022-11-23T03:33:37;97224.50;;;2.59;66.11
40982;BME280;26708;50.304;19.028;2022-11-23T03:35:42;97282.34;;;2.88;66.03
40982;BME280;26708;50.304;19.028;2022-11-23T03:37:56;97278.03;;;2.84;65.92
40982;BME280;26708;50.304;19.028;2022-11-23T03:40:00;97282.31;;;2.81;66.22
40982;BME280;26708;50.304;19.028;2022-11-23T03:42:23;97275.41;;;2.80;66.44
40982;BME280;26708;50.304;19.028;2022-11-23T03:44:28;97265.94;;;2.80;66.49
40982;BME280;26708;50.304;19.028;2022-11-23T03:46:33;97272.00;;;2.85;66.43
40982;BME280;26708;50.304;19.028;2022-11-23T03:48:40;97268.56;;;2.89;66.06
40982;BME280;26708;50.304;19.028;2022-11-23T03:50:45;97213.28;;;2.54;66.04
40982;BME280;26708;50.304;19.028;2022-11-23T03:52:50;97061.31;;;1.66;65.83
40982;BME280;26708;50.304;19.028;2022-11-23T03:54:57;97219.34;;;2.65;65.77
40982;BME280;26708;50.304;19.028;2022-11-23T03:57:02;97251.34;;;2.85;65.57
40982;BME280;26708;50.304;19.028;2022-11-23T03:59:07;97202.09;;;2.58;65.58
40982;BME280;26708;50.304;19.028;2022-11-23T04:01:12;97270.34;;;2.98;65.53
40982;BME280;26708;50.304;19.028;2022-11-23T04:03:20;97273.78;;;3.00;65.30
40982;BME280;26708;50.304;19.028;2022-11-23T04:05:44;97272.06;;;2.97;65.23
40982;BME280;26708;50.304;19.028;2022-11-23T04:08:07;97266.03;;;2.97;65.37
40982;BME280;26708;50.304;19.028;2022-11-23T04:10:13;97213.34;;;2.68;65.38
40982;BME280;26708;50.304;19.028;2022-11-23T04:12:36;97214.22;;;2.68;65.12
40982;BME280;26708;50.304;19.028;2022-11-23T04:14:42;97253.94;;;2.93;65.28
40982;BME280;26708;50.304;19.028;2022-11-23T04:16:47;97215.88;;;2.62;65.37
40982;BME280;26708;50.304;19.028;2022-11-23T04:18:51;97259.94;;;2.86;65.40
40982;BME280;26708;50.304;19.028;2022-11-23T04:20:59;97238.34;;;2.70;65.53
40982;BME280;26708;50.304;19.028;2022-11-23T04:23:04;97268.53;;;2.85;65.55
40982;BME280;26708;50.304;19.028;2022-11-23T04:25:09;97245.25;;;2.73;65.59
40982;BME280;26708;50.304;19.028;2022-11-23T04:27:14;97271.16;;;2.89;65.56
40982;BME280;26708;50.304;19.028;2022-11-23T04:29:19;97224.44;;;2.55;65.53
40982;BME280;26708;50.304;19.028;2022-11-23T04:31:27;97067.28;;;1.62;65.51
40982;BME280;26708;50.304;19.028;2022-11-23T04:33:46;97268.56;;;2.83;65.76
40982;BME280;26708;50.304;19.028;2022-11-23T04:35:53;97274.59;;;2.85;65.68
40982;BME280;26708;50.304;19.028;2022-11-23T04:38:00;97274.59;;;2.88;65.74
40982;BME280;26708;50.304;19.028;2022-11-23T04:40:06;97272.06;;;2.94;65.86
40982;BME280;26708;50.304;19.028;2022-11-23T04:42:29;97252.22;;;2.87;65.42
40982;BME280;26708;50.304;19.028;2022-11-23T04:44:35;97230.63;;;2.78;65.39
40982;BME280;26708;50.304;19.028;2022-11-23T04:46:41;97262.59;;;2.96;65.26
40982;BME280;26708;50.304;19.028;2022-11-23T04:48:48;97289.41;;;3.13;65.09
40982;BME280;26708;50.304;19.028;2022-11-23T04:50:53;97280.78;;;3.16;65.00
40982;BME280;26708;50.304;19.028;2022-11-23T04:53:07;97264.34;;;3.03;64.82
40982;BME280;26708;50.304;19.028;2022-11-23T04:55:17;97266.06;;;3.00;65.08
40982;BME280;26708;50.304;19.028;2022-11-23T04:57:29;97186.59;;;2.55;65.10
40982;BME280;26708;50.304;19.028;2022-11-23T04:59:34;97213.38;;;2.72;65.23
40982;BME280;26708;50.304;19.028;2022-11-23T05:01:40;97273.81;;;3.04;65.13
40982;BME280;26708;50.304;19.028;2022-11-23T05:04:06;97234.84;;;2.64;65.31
40982;BME280;26708;50.304;19.028;2022-11-23T05:06:11;97158.84;;;2.27;65.68
40982;BME280;26708;50.304;19.028;2022-11-23T05:08:20;97284.09;;;2.92;65.77
40982;BME280;26708;50.304;19.028;2022-11-23T05:10:36;97258.22;;;2.83;65.81
40982;BME280;26708;50.304;19.028;2022-11-23T05:12:41;97274.63;;;2.93;65.75
40982;BME280;26708;50.304;19.028;2022-11-23T05:14:47;97272.03;;;2.91;66.05
40982;BME280;26708;50.304;19.028;2022-11-23T05:16:57;97253.88;;;2.79;66.09
40982;BME280;26708;50.304;19.028;2022-11-23T05:19:02;97252.16;;;2.81;66.17
40982;BME280;26708;50.304;19.028;2022-11-23T05:21:08;97255.66;;;2.86;66.09
40982;BME280;26708;50.304;19.028;2022-11-23T05:23:12;97257.41;;;2.90;66.01
40982;BME280;26708;50.304;19.028;2022-11-23T05:25:21;97271.25;;;3.04;65.94
40982;BME280;26708;50.304;19.028;2022-11-23T05:27:34;97244.47;;;2.92;65.67
40982;BME280;26708;50.304;19.028;2022-11-23T05:29:39;97267.81;;;3.07;65.72
40982;BME280;26708;50.304;19.028;2022-11-23T05:31:43;97262.69;;;3.10;65.67
40982;BME280;26708;50.304;19.028;2022-11-23T05:33:50;97271.25;;;3.06;65.57
40982;BME280;26708;50.304;19.028;2022-11-23T05:36:07;97250.53;;;2.95;65.60
40982;BME280;26708;50.304;19.028;2022-11-23T05:38:15;97253.97;;;2.97;65.64
40982;BME280;26708;50.304;19.028;2022-11-23T05:40:23;97271.25;;;3.04;65.67
40982;BME280;26708;50.304;19.028;2022-11-23T05:42:31;97272.97;;;2.99;65.84
40982;BME280;26708;50.304;19.028;2022-11-23T05:44:44;97277.25;;;3.03;65.77
40982;BME280;26708;50.304;19.028;2022-11-23T05:46:56;97268.66;;;3.03;65.71
40982;BME280;26708;50.304;19.028;2022-11-23T05:49:02;97271.22;;;3.01;65.86
40982;BME280;26708;50.304;19.028;2022-11-23T05:51:10;97251.34;;;2.82;65.81
40982;BME280;26708;50.304;19.028;2022-11-23T05:53:20;97080.28;;;1.79;65.96
40982;BME280;26708;50.304;19.028;2022-11-23T05:55:32;97253.03;;;2.80;65.93
40982;BME280;26708;50.304;19.028;2022-11-23T05:57:37;97182.13;;;2.35;66.17
40982;BME280;26708;50.304;19.028;2022-11-23T05:59:42;97257.28;;;2.72;66.18
40982;BME280;26708;50.304;19.028;2022-11-23T06:01:53;97273.69;;;2.82;66.26
40982;BME280;26708;50.304;19.028;2022-11-23T06:04:03;97257.28;;;2.72;66.42
40982;BME280;26708;50.304;19.028;2022-11-23T06:06:13;97283.16;;;2.83;66.52
40982;BME280;26708;50.304;19.028;2022-11-23T06:08:18;97225.34;;;2.57;66.40
40982;BME280;26708;50.304;19.028;2022-11-23T06:10:23;97277.22;;;2.91;66.30
40982;BME280;26708;50.304;19.028;2022-11-23T06:12:31;97250.38;;;2.68;66.20
40982;BME280;26708;50.304;19.028;2022-11-23T06:14:37;97277.19;;;2.87;66.20
40982;BME280;26708;50.304;19.028;2022-11-23T06:16:41;97216.72;;;2.56;66.25
40982;BME280;26708;50.304;19.028;2022-11-23T06:18:56;97225.34;;;2.60;66.07
40982;BME280;26708;50.304;19.028;2022-11-23T06:21:00;97315.19;;;3.06;65.92
40982;BME280;26708;50.304;19.028;2022-11-23T06:23:06;97310.88;;;3.05;65.71
40982;BME280;26708;50.304;19.028;2022-11-23T06:25:11;97319.47;;;3.02;65.98
40982;BME280;26708;50.304;19.028;2022-11-23T06:27:20;97283.25;;;2.90;65.92
40982;BME280;26708;50.304;19.028;2022-11-23T06:29:28;97282.28;;;2.79;65.76
40982;BME280;26708;50.304;19.028;2022-11-23T06:31:33;97316.00;;;2.99;65.95
40982;BME280;26708;50.304;19.028;2022-11-23T06:33:38;97315.16;;;3.01;66.07
40982;BME280;26708;50.304;19.028;2022-11-23T06:35:51;97319.41;;;2.96;66.01
40982;BME280;26708;50.304;19.028;2022-11-23T06:37:58;97321.19;;;3.00;66.01
40982;BME280;26708;50.304;19.028;2022-11-23T06:40:04;97317.75;;;3.03;66.10
40982;BME280;26708;50.304;19.028;2022-11-23T06:42:09;97318.63;;;3.05;66.02
40982;BME280;26708;50.304;19.028;2022-11-23T06:44:14;97327.22;;;3.05;66.05
40982;BME280;26708;50.304;19.028;2022-11-23T06:46:21;97326.41;;;3.06;65.83
40982;BME280;26708;50.304;19.028;2022-11-23T06:48:25;97324.66;;;3.07;65.85
40982;BME280;26708;50.304;19.028;2022-11-23T06:50:33;97284.88;;;2.79;66.05
40982;BME280;26708;50.304;19.028;2022-11-23T06:52:38;97271.94;;;2.75;66.07
40982;BME280;26708;50.304;19.028;2022-11-23T06:54:43;97290.88;;;2.78;66.08
40982;BME280;26708;50.304;19.028;2022-11-23T06:56:50;97261.56;;;2.67;66.03
40982;BME280;26708;50.304;19.028;2022-11-23T06:58:54;97317.72;;;2.98;66.22
40982;BME280;26708;50.304;19.028;2022-11-23T07:01:03;97321.16;;;2.99;66.21
40982;BME280;26708;50.304;19.028;2022-11-23T07:03:21;97316.88;;;2.99;66.33
40982;BME280;26708;50.304;19.028;2022-11-23T07:05:50;97316.00;;;3.00;66.31
40982;BME280;26708;50.304;19.028;2022-11-23T07:07:56;97319.44;;;3.01;66.37
40982;BME280;26708;50.304;19.028;2022-11-23T07:10:03;97316.00;;;3.00;66.53
40982;BME280;26708;50.304;19.028;2022-11-23T07:12:17;97315.13;;;3.00;66.46
40982;BME280;26708;50.304;19.028;2022-11-23T07:14:37;97265.88;;;2.74;66.38
40982;BME280;26708;50.304;19.028;2022-11-23T07:16:56;97290.91;;;2.83;66.52
40982;BME280;26708;50.304;19.028;2022-11-23T07:19:19;97315.09;;;2.95;66.68
40982;BME280;26708;50.304;19.028;2022-11-23T07:21:40;97319.41;;;2.96;66.65
40982;BME280;26708;50.304;19.028;2022-11-23T07:24:00;97316.88;;;3.02;66.73
40982;BME280;26708;50.304;19.028;2022-11-23T07:26:16;97311.69;;;3.01;66.63
40982;BME280;26708;50.304;19.028;2022-11-23T07:28:36;97286.59;;;2.80;66.55
40982;BME280;26708;50.304;19.028;2022-11-23T07:30:40;97322.03;;;3.02;66.75
40982;BME280;26708;50.304;19.028;2022-11-23T07:33:00;97322.06;;;3.05;66.93
40982;BME280;26708;50.304;19.028;2022-11-23T07:35:23;97308.28;;;3.02;66.77
40982;BME280;26708;50.304;19.028;2022-11-23T07:37:43;97331.63;;;3.20;66.63
40982;BME280;26708;50.304;19.028;2022-11-23T07:40:03;97332.50;;;3.19;66.49
40982;BME280;26708;50.304;19.028;2022-11-23T07:42:24;97336.81;;;3.20;66.60
40982;BME280;26708;50.304;19.028;2022-11-23T07:44:43;97326.41;;;3.12;66.49
40982;BME280;26708;50.304;19.028;2022-11-23T07:46:47;97341.13;;;3.25;66.47
40982;BME280;26708;50.304;19.028;2022-11-23T07:49:07;97286.69;;;2.92;66.29
40982;BME280;26708;50.304;19.028;2022-11-23T07:51:29;97342.00;;;3.24;66.46
40982;BME280;26708;50.304;19.028;2022-11-23T07:53:34;97347.16;;;3.24;66.54
40982;BME280;26708;50.304;19.028;2022-11-23T07:55:39;97348.88;;;3.24;66.61
40982;BME280;26708;50.304;19.028;2022-11-23T07:57:43;97348.00;;;3.20;66.66
40982;BME280;26708;50.304;19.028;2022-11-23T07:59:48;97352.34;;;3.21;66.68
40982;BME280;26708;50.304;19.028;2022-11-23T08:01:52;97354.06;;;3.22;66.82
40982;BME280;26708;50.304;19.028;2022-11-23T08:03:57;97358.34;;;3.25;66.98
40982;BME280;26708;50.304;19.028;2022-11-23T08:06:02;97356.66;;;3.30;66.78
40982;BME280;26708;50.304;19.028;2022-11-23T08:08:09;97353.28;;;3.37;66.75
40982;BME280;26708;50.304;19.028;2022-11-23T08:10:14;97292.84;;;3.14;66.72
40982;BME280;26708;50.304;19.028;2022-11-23T08:12:19;97347.34;;;3.57;66.53
40982;BME280;26708;50.304;19.028;2022-11-23T08:14:23;97322.34;;;3.53;66.16
40982;BME280;26708;50.304;19.028;2022-11-23T08:16:28;97349.13;;;3.73;65.91
40982;BME280;26708;50.304;19.028;2022-11-23T08:18:33;97303.38;;;3.53;65.47
40982;BME280;26708;50.304;19.028;2022-11-23T08:20:37;97349.16;;;3.79;65.33
40982;BME280;26708;50.304;19.028;2022-11-23T08:22:41;97340.53;;;3.79;65.29
40982;BME280;26708;50.304;19.028;2022-11-23T08:24:49;97337.09;;;3.77;65.45
40982;BME280;26708;50.304;19.028;2022-11-23T08:26:54;97341.41;;;3.76;65.32
40982;BME280;26708;50.304;19.028;2022-11-23T08:28:59;97336.22;;;3.75;65.39
40982;BME280;26708;50.304;19.028;2022-11-23T08:31:05;97337.06;;;3.72;65.52
40982;BME280;26708;50.304;19.028;2022-11-23T08:33:12;97341.38;;;3.75;65.69
40982;BME280;26708;50.304;19.028;2022-11-23T08:35:16;97324.13;;;3.69;65.64
40982;BME280;26708;50.304;19.028;2022-11-23T08:37:22;97242.97;;;3.31;65.30
40982;BME280;26708;50.304;19.028;2022-11-23T08:39:26;97331.09;;;3.90;64.83
40982;BME280;26708;50.304;19.028;2022-11-23T08:41:33;97274.03;;;3.49;64.91
40982;BME280;26708;50.304;19.028;2022-11-23T08:43:38;97288.78;;;3.64;65.09
40982;BME280;26708;50.304;19.028;2022-11-23T08:45:42;97315.56;;;3.88;64.86
40982;BME280;26708;50.304;19.028;2022-11-23T08:47:46;97312.13;;;3.89;64.76
40982;BME280;26708;50.304;19.028;2022-11-23T08:49:51;97317.34;;;4.05;64.58
40982;BME280;26708;50.304;19.028;2022-11-23T08:51:56;97315.63;;;4.10;64.24
40982;BME280;26708;50.304;19.028;2022-11-23T08:54:00;97320.81;;;4.10;64.12
40982;BME280;26708;50.304;19.028;2022-11-23T08:56:06;97322.53;;;4.13;64.29
40982;BME280;26708;50.304;19.028;2022-11-23T08:58:14;97270.72;;;3.85;64.03
40982;BME280;26708;50.304;19.028;2022-11-23T09:00:19;97318.22;;;4.12;64.08
40982;BME280;26708;50.304;19.028;2022-11-23T09:02:24;97230.16;;;3.61;63.98
40982;BME280;26708;50.304;19.028;2022-11-23T09:04:28;97180.06;;;3.29;63.90
40982;BME280;26708;50.304;19.028;2022-11-23T09:06:34;97305.25;;;4.01;64.20
40982;BME280;26708;50.304;19.028;2022-11-23T09:08:40;97322.53;;;4.07;64.07
40982;BME280;26708;50.304;19.028;2022-11-23T09:10:44;97319.09;;;4.08;63.74
40982;BME280;26708;50.304;19.028;2022-11-23T09:12:48;97287.97;;;3.92;63.54
40982;BME280;26708;50.304;19.028;2022-11-23T09:14:56;97315.59;;;4.01;63.22
40982;BME280;26708;50.304;19.028;2022-11-23T09:17:01;97313.88;;;4.00;63.50
40982;BME280;26708;50.304;19.028;2022-11-23T09:19:05;97313.03;;;4.04;63.59
40982;BME280;26708;50.304;19.028;2022-11-23T09:21:10;97316.47;;;4.05;63.08
40982;BME280;26708;50.304;19.028;2022-11-23T09:23:15;97312.16;;;4.05;63.09
40982;BME280;26708;50.304;19.028;2022-11-23T09:25:20;97318.22;;;4.04;62.93
40982;BME280;26708;50.304;19.028;2022-11-23T09:27:26;97327.69;;;4.05;63.09
40982;BME280;26708;50.304;19.028;2022-11-23T09:29:30;97324.25;;;4.08;63.13
40982;BME280;26708;50.304;19.028;2022-11-23T09:31:37;97226.66;;;3.53;62.78
40982;BME280;26708;50.304;19.028;2022-11-23T09:33:43;97319.06;;;4.02;62.82
40982;BME280;26708;50.304;19.028;2022-11-23T09:35:55;97319.94;;;4.02;63.16
40982;BME280;26708;50.304;19.028;2022-11-23T09:38:00;97329.41;;;4.02;63.03
40982;BME280;26708;50.304;19.028;2022-11-23T09:40:07;97315.63;;;4.04;62.94
40982;BME280;26708;50.304;19.028;2022-11-23T09:42:40;97309.59;;;4.07;63.14
40982;BME280;26708;50.304;19.028;2022-11-23T09:45:16;97310.44;;;4.12;62.83
40982;BME280;26708;50.304;19.028;2022-11-23T09:47:45;97309.59;;;4.17;62.99
40982;BME280;26708;50.304;19.028;2022-11-23T09:50:14;97256.03;;;3.82;62.74
40982;BME280;26708;50.304;19.028;2022-11-23T09:52:23;97304.41;;;4.13;62.67
40982;BME280;26708;50.304;19.028;2022-11-23T09:54:32;97294.06;;;4.13;62.76
40982;BME280;26708;50.304;19.028;2022-11-23T09:56:40;97274.19;;;3.96;62.48
40982;BME280;26708;50.304;19.028;2022-11-23T09:58:53;97246.56;;;3.80;62.56
40982;BME280;26708;50.304;19.028;2022-11-23T10:01:03;97295.78;;;4.12;62.96
40982;BME280;26708;50.304;19.028;2022-11-23T10:03:15;97206.84;;;3.60;62.60
40982;BME280;26708;50.304;19.028;2022-11-23T10:05:22;97292.38;;;4.24;62.57
40982;BME280;26708;50.304;19.028;2022-11-23T10:07:46;97296.66;;;4.25;62.31
40982;BME280;26708;50.304;19.028;2022-11-23T10:10:12;97292.38;;;4.33;62.16
40982;BME280;26708;50.304;19.028;2022-11-23T10:12:38;97297.56;;;4.39;61.65
40982;BME280;26708;50.304;19.028;2022-11-23T10:15:00;97263.03;;;4.22;61.25
40982;BME280;26708;50.304;19.028;2022-11-23T10:17:16;97283.72;;;4.28;61.28
40982;BME280;26708;50.304;19.028;2022-11-23T10:19:46;97280.28;;;4.26;61.61
40982;BME280;26708;50.304;19.028;2022-11-23T10:22:07;97272.50;;;4.24;61.13
40982;BME280;26708;50.304;19.028;2022-11-23T10:24:16;97271.63;;;4.22;60.62
40982;BME280;26708;50.304;19.028;2022-11-23T10:26:28;97232.78;;;4.03;60.46
40982;BME280;26708;50.304;19.028;2022-11-23T10:28:36;97206.91;;;3.85;59.76
40982;BME280;26708;50.304;19.028;2022-11-23T10:30:41;97263.00;;;4.11;59.70
40982;BME280;26708;50.304;19.028;2022-11-23T10:32:51;97154.25;;;3.46;59.58
40982;BME280;26708;50.304;19.028;2022-11-23T10:35:11;97259.53;;;4.00;59.89
40982;BME280;26708;50.304;19.028;2022-11-23T10:37:17;97254.34;;;4.00;60.03
40982;BME280;26708;50.304;19.028;2022-11-23T10:39:24;97259.53;;;4.02;60.18
40982;BME280;26708;50.304;19.028;2022-11-23T10:41:30;97258.66;;;4.01;60.37
40982;BME280;26708;50.304;19.028;2022-11-23T10:43:42;97241.41;;;3.92;60.35
40982;BME280;26708;50.304;19.028;2022-11-23T10:45:49;97209.47;;;3.79;60.53
40982;BME280;26708;50.304;19.028;2022-11-23T10:47:56;97209.47;;;3.79;60.57
40982;BME280;26708;50.304;19.028;2022-11-23T10:50:19;97252.66;;;4.07;60.32
40982;BME280;26708;50.304;19.028;2022-11-23T10:52:28;97245.75;;;4.06;60.47
40982;BME280;26708;50.304;19.028;2022-11-23T10:54:37;97130.97;;;3.34;60.33
40982;BME280;26708;50.304;19.028;2022-11-23T10:56:46;97242.31;;;4.02;60.26
40982;BME280;26708;50.304;19.028;2022-11-23T10:58:51;97241.44;;;4.02;60.34
40982;BME280;26708;50.304;19.028;2022-11-23T11:00:59;97223.28;;;3.86;60.42
40982;BME280;26708;50.304;19.028;2022-11-23T11:03:22;97194.81;;;3.78;60.25
40982;BME280;26708;50.304;19.028;2022-11-23T11:05:32;97233.69;;;4.08;60.07
40982;BME280;26708;50.304;19.028;2022-11-23T11:07:39;97252.66;;;4.11;59.82
40982;BME280;26708;50.304;19.028;2022-11-23T11:09:48;97248.34;;;4.10;59.84
40982;BME280;26708;50.304;19.028;2022-11-23T11:11:53;97240.56;;;4.04;60.23
40982;BME280;26708;50.304;19.028;2022-11-23T11:14:04;97179.28;;;3.63;60.38
40982;BME280;26708;50.304;19.028;2022-11-23T11:16:19;97089.56;;;3.11;60.26
40982;BME280;26708;50.304;19.028;2022-11-23T11:18:26;97214.66;;;3.82;60.31
40982;BME280;26708;50.304;19.028;2022-11-23T11:20:36;97219.84;;;3.88;60.32
40982;BME280;26708;50.304;19.028;2022-11-23T11:22:40;97096.47;;;3.20;60.21